Time;durP1;ratioP1;P1;durP2;ratioP2;P2;SDS_P1;SDS_P2;PMS_P1;PMS_P2;Temp;Humidity;BMP_temperature;BMP_pressure;BME280_temperature;BME280_humidity;BME280_pressure;Samples;Min_cycle;Max_cycle;Signal;HPM_P1;HPM_P2
2021/05/11 00:00:38;;;;;;;14.40;12.87;;;;;;;12.01;100.00;99683.81;2047128;28;20035;-66
2021/05/11 00:01:40;;;;;;;13.50;12.13;;;;;;;12.04;100.00;99679.28;2045752;28;20595;-66
2021/05/11 00:02:40;;;;;;;14.25;12.75;;;;;;;11.99;100.00;99670.81;2045028;28;20031;-66
2021/05/11 00:03:43;;;;;;;14.00;12.67;;;;;;;12.01;100.00;99668.97;2046785;28;20102;-65
2021/05/11 00:04:43;;;;;;;14.82;12.48;;;;;;;12.01;100.00;99663.75;2043117;29;20122;-66
2021/05/11 00:05:44;;;;;;;13.70;12.23;;;;;;;12.14;100.00;99664.06;2046918;28;20027;-65
2021/05/11 00:06:44;;;;;;;14.40;12.53;;;;;;;12.02;100.00;99664.63;2046796;28;20053;-65
2021/05/11 00:07:44;;;;;;;13.67;12.33;;;;;;;12.03;100.00;99661.91;2046817;28;20372;-65
2021/05/11 00:08:45;;;;;;;14.67;13.20;;;;;;;12.00;100.00;99659.44;2046079;29;20490;-66
2021/05/11 00:09:45;;;;;;;15.30;12.27;;;;;;;11.99;100.00;99655.16;2046927;28;20488;-65
2021/05/11 00:10:45;;;;;;;13.87;12.47;;;;;;;11.95;100.00;99662.22;2046695;28;20826;-65
2021/05/11 00:11:46;;;;;;;14.80;12.57;;;;;;;11.93;100.00;99658.84;2046396;28;20091;-65
2021/05/11 00:12:46;;;;;;;14.37;12.97;;;;;;;11.92;100.00;99654.53;2045679;28;20678;-65
2021/05/11 00:13:46;;;;;;;14.20;12.63;;;;;;;11.91;100.00;99658.06;2045549;28;20039;-65
2021/05/11 00:14:47;;;;;;;16.30;13.97;;;;;;;11.92;100.00;99664.13;2046519;28;20031;-65
2021/05/11 00:15:47;;;;;;;14.40;12.90;;;;;;;11.93;100.00;99671.03;2047069;29;20494;-65
2021/05/11 00:16:47;;;;;;;16.03;14.03;;;;;;;11.93;100.00;99664.09;2046791;28;20034;-65
2021/05/11 00:17:48;;;;;;;15.27;13.67;;;;;;;11.91;100.00;99672.88;2045575;28;20038;-65
2021/05/11 00:18:48;;;;;;;16.17;14.47;;;;;;;11.90;100.00;99660.75;2046665;28;20492;-65
2021/05/11 00:19:48;;;;;;;15.27;13.67;;;;;;;11.88;100.00;99666.03;2046176;28;20078;-65
2021/05/11 00:20:48;;;;;;;15.30;13.70;;;;;;;11.86;100.00;99669.63;2046527;29;20110;-65
2021/05/11 00:21:49;;;;;;;15.50;13.67;;;;;;;11.83;100.00;99661.00;2046398;29;20023;-65
2021/05/11 00:22:49;;;;;;;17.33;14.63;;;;;;;11.82;100.00;99663.69;2045660;28;20602;-65
2021/05/11 00:23:50;;;;;;;15.88;14.30;;;;;;;11.81;100.00;99656.78;2046284;28;20031;-65
2021/05/11 00:24:50;;;;;;;16.23;14.20;;;;;;;11.80;100.00;99649.88;2045985;28;20114;-65
2021/05/11 00:25:50;;;;;;;16.63;13.73;;;;;;;11.79;100.00;99651.63;2046650;29;20071;-65
2021/05/11 00:26:51;;;;;;;16.23;14.53;;;;;;;11.77;100.00;99655.22;2045783;29;20658;-65
2021/05/11 00:27:51;;;;;;;17.07;14.83;;;;;;;11.76;100.00;99653.50;2046315;29;20546;-66
2021/05/11 00:28:51;;;;;;;17.97;15.27;;;;;;;11.76;100.00;99651.75;2046570;29;20023;-65
2021/05/11 00:29:51;;;;;;;20.23;18.13;;;;;;;11.76;100.00;99656.13;2046810;28;20031;-65
2021/05/11 00:30:53;;;;;;;29.93;25.30;;;;;;;11.73;100.00;99657.09;2046362;28;20027;-65
2021/05/11 00:31:53;;;;;;;;;;;;;;;11.72;100.00;99658.03;2045124;29;20027;-64
2021/05/11 00:32:53;;;;;;;22.88;19.33;;;;;;;11.71;100.00;99651.09;2048207;28;20279;-64
2021/05/11 00:33:54;;;;;;;20.03;17.87;;;;;;;11.70;100.00;99653.78;2047623;29;20037;-65
2021/05/11 00:34:55;;;;;;;17.85;16.05;;;;;;;11.71;100.00;99651.09;2046681;28;20023;-64
2021/05/11 00:35:55;;;;;;;17.83;15.93;;;;;;;11.70;100.00;99648.56;2047316;28;20440;-64
2021/05/11 00:36:55;;;;;;;18.27;15.70;;;;;;;11.67;100.00;99653.00;2045828;28;20035;-64
2021/05/11 00:37:56;;;;;;;17.53;15.63;;;;;;;11.68;100.00;99651.25;2045831;29;20066;-65
2021/05/11 00:38:57;;;;;;;18.13;16.00;;;;;;;11.69;100.00;99647.72;2040894;29;20706;-65
2021/05/11 00:39:57;;;;;;;17.17;15.38;;;;;;;11.68;100.00;99646.88;2043530;28;20059;-64
2021/05/11 00:40:57;;;;;;;17.97;16.07;;;;;;;11.67;100.00;99647.78;2041615;29;20050;-64
2021/05/11 00:41:58;;;;;;;18.03;15.03;;;;;;;11.67;100.00;99639.13;2049098;28;20562;-64
2021/05/11 00:42:58;;;;;;;18.70;16.47;;;;;;;11.65;100.00;99644.41;2047908;28;20027;-65
2021/05/11 00:43:58;;;;;;;19.30;16.43;;;;;;;11.63;100.00;99638.41;2041472;29;20075;-64
2021/05/11 00:44:59;;;;;;;17.53;15.57;;;;;;;11.62;100.00;99647.16;2041353;28;20102;-65
2021/05/11 00:45:59;;;;;;;18.47;15.63;;;;;;;11.59;100.00;99649.88;2040709;29;20038;-64
2021/05/11 00:47:04;;;;;;;19.77;15.53;;;;;;;11.62;100.00;99664.56;2041675;29;20028;-65
2021/05/11 00:48:04;;;;;;;18.25;16.17;;;;;;;11.58;100.00;99657.78;2042694;29;20024;-64
2021/05/11 00:49:05;;;;;;;17.63;15.80;;;;;;;11.59;100.00;99670.75;2042721;28;20031;-64
2021/05/11 00:50:05;;;;;;;17.60;15.73;;;;;;;11.60;100.00;99671.63;2040886;29;20094;-64
2021/05/11 00:51:07;;;;;;;17.83;15.50;;;;;;;11.60;100.00;99669.00;2041421;28;20027;-65
2021/05/11 00:52:08;;;;;;;17.52;15.57;;;;;;;11.62;100.00;99672.38;2047127;28;20046;-64
2021/05/11 00:53:08;;;;;;;;;;;;;;;11.58;100.00;99676.06;2048915;28;20452;-64
2021/05/11 00:54:09;;;;;;;17.13;15.32;;;;;;;11.59;100.00;99673.38;2041875;29;19910;-64
2021/05/11 00:55:10;;;;;;;17.73;15.80;;;;;;;11.57;100.00;99671.75;2039933;29;20027;-64
2021/05/11 00:56:12;;;;;;;17.83;15.93;;;;;;;11.58;100.00;99671.66;2040739;29;20034;-64
2021/05/11 00:57:12;;;;;;;18.38;16.10;;;;;;;11.57;100.00;99669.13;2044310;28;20027;-64
2021/05/11 00:58:13;;;;;;;17.67;15.77;;;;;;;11.53;100.00;99669.25;2042215;28;20472;-65
2021/05/11 00:59:37;;;;;;;17.40;15.60;;;;;;;11.53;100.00;99669.25;2042106;29;20026;-64
2021/05/11 01:00:36;;;;;;;19.20;15.52;;;;;;;11.52;100.00;99656.28;2039853;28;20685;-64
2021/05/11 01:01:36;;;;;;;19.27;16.67;;;;;;;11.50;100.00;99655.50;2042465;28;20074;-64
2021/05/11 01:02:37;;;;;;;18.63;16.67;;;;;;;11.51;100.00;99649.38;2039689;28;20038;-64
2021/05/11 01:03:37;;;;;;;19.95;17.52;;;;;;;11.51;100.00;99652.81;2041463;29;20552;-64
2021/05/11 01:04:38;;;;;;;21.50;18.07;;;;;;;11.53;100.00;99653.59;2041187;29;20131;-64
2021/05/11 01:05:38;;;;;;;23.37;19.03;;;;;;;11.56;100.00;99655.22;2040355;29;20567;-65
2021/05/11 01:06:39;;;;;;;21.53;18.73;;;;;;;11.59;100.00;99662.94;2041875;29;20031;-64
2021/05/11 01:07:39;;;;;;;20.50;18.27;;;;;;;11.60;100.00;99669.00;2043720;29;20038;-64
2021/05/11 01:08:40;;;;;;;19.00;17.00;;;;;;;11.60;100.00;99667.25;2043771;28;20798;-64
2021/05/11 01:09:41;;;;;;;22.38;19.92;;;;;;;11.65;100.00;99667.91;2042058;29;20038;-64
2021/05/11 01:10:41;;;;;;;21.63;19.25;;;;;;;11.66;100.00;99663.53;2043059;28;20036;-64
2021/05/11 01:11:42;;;;;;;22.17;19.57;;;;;;;11.70;100.00;99662.47;2043559;28;20075;-64
2021/05/11 01:12:43;;;;;;;23.00;20.52;;;;;;;11.70;100.00;99659.88;2041789;28;20026;-64
2021/05/11 01:13:43;;;;;;;23.43;20.53;;;;;;;11.71;100.00;99661.53;2040331;29;20396;-64
2021/05/11 01:14:45;;;;;;;24.60;21.23;;;;;;;11.71;100.00;99666.75;2041249;29;20031;-64
2021/05/11 01:15:49;;;;;;;23.88;20.60;;;;;;;11.75;100.00;99678.78;2042181;29;20030;-64
2021/05/11 01:16:54;;;;;;;26.25;21.88;;;;;;;11.73;100.00;99667.56;2041988;29;20051;-64
2021/05/11 01:18:01;;;;;;;27.83;22.48;;;;;;;11.75;100.00;99670.94;2040210;28;20365;-64
2021/05/11 01:19:16;;;;;;;24.83;21.25;;;;;;;11.75;100.00;99664.91;2042925;28;20059;-64
2021/05/11 01:20:26;;;;;;;24.13;20.45;;;;;;;11.72;100.00;99663.25;2039660;29;20070;-64
2021/05/11 01:23:07;;;;;;;25.80;21.83;;;;;;;11.71;100.00;99658.09;2041588;29;20118;-64
2021/05/11 01:24:11;;;;;;;23.33;20.33;;;;;;;11.71;100.00;99650.28;2041864;29;20033;-64
2021/05/11 01:25:25;;;;;;;25.25;21.05;;;;;;;11.68;100.00;99640.81;2042167;28;20512;-64
2021/05/11 01:26:31;;;;;;;23.40;20.30;;;;;;;11.65;100.00;99646.16;2042097;28;20031;-64
2021/05/11 01:29:39;;;;;;;24.60;21.08;;;;;;;11.57;100.00;99641.25;2042742;29;20038;-64
2021/05/11 01:31:45;;;;;;;21.17;18.92;;;;;;;11.57;100.00;99635.22;2046599;28;20135;-64
2021/05/11 01:45:01;;;;;;;26.17;20.13;;;;;;;11.41;100.00;99622.84;2047942;29;20028;-64
2021/05/11 01:49:52;;;;;;;24.70;21.23;;;;;;;11.39;100.00;99610.75;2047522;29;20400;-64
2021/05/11 02:10:57;;;;;;;34.83;22.45;;;;;;;11.41;100.00;99583.69;2049529;29;20027;-64
2021/05/11 02:23:31;;;;;;;25.02;19.52;;;;;;;11.29;100.00;99602.50;2049178;29;20035;-65
2021/05/11 02:24:31;;;;;;;25.60;20.50;;;;;;;11.29;100.00;99603.31;2049372;28;20472;-65
2021/05/11 02:25:32;;;;;;;22.53;19.67;;;;;;;11.28;100.00;99606.00;2049599;28;20031;-65
2021/05/11 02:26:32;;;;;;;24.37;19.73;;;;;;;11.27;100.00;99609.53;2049459;28;20186;-65
2021/05/11 02:27:33;;;;;;;21.73;19.10;;;;;;;11.28;100.00;99612.06;2049557;28;20111;-65
2021/05/11 02:28:33;;;;;;;22.55;18.67;;;;;;;11.28;100.00;99608.63;2049693;28;20023;-65
2021/05/11 02:29:33;;;;;;;23.00;19.70;;;;;;;11.28;100.00;99616.44;2049692;28;20035;-65
2021/05/11 02:30:34;;;;;;;24.77;19.37;;;;;;;11.27;100.00;99618.19;2049553;28;20055;-65
2021/05/11 02:31:34;;;;;;;22.93;19.00;;;;;;;11.28;100.00;99617.28;2049100;28;20062;-65
2021/05/11 02:32:37;;;;;;;22.00;18.67;;;;;;;11.30;100.00;99620.66;2049513;29;20062;-64
2021/05/11 02:33:37;;;;;;;27.08;18.98;;;;;;;11.32;100.00;99620.59;2049249;29;20563;-65
2021/05/11 02:34:37;;;;;;;20.70;17.53;;;;;;;11.29;100.00;99628.56;2049617;29;20035;-65
2021/05/11 02:35:37;;;;;;;22.23;17.47;;;;;;;11.28;100.00;99622.50;2049547;29;20527;-65
2021/05/11 02:36:38;;;;;;;24.07;19.23;;;;;;;11.28;100.00;99616.44;2049499;29;20038;-65
2021/05/11 02:37:39;;;;;;;26.30;19.70;;;;;;;11.27;100.00;99610.34;2048686;29;20590;-64
2021/05/11 02:38:39;;;;;;;24.98;18.98;;;;;;;11.32;100.00;99612.78;2040190;29;20032;-64
2021/05/11 02:39:39;;;;;;;23.27;19.03;;;;;;;11.32;100.00;99607.56;2049059;29;20081;-64
2021/05/11 02:40:40;;;;;;;25.73;19.07;;;;;;;11.32;100.00;99612.78;2049322;29;20115;-64
2021/05/11 02:41:43;;;;;;;30.15;19.05;;;;;;;11.32;100.00;99608.41;2049451;28;20027;-64
2021/05/11 02:42:45;;;;;;;31.58;19.88;;;;;;;11.33;100.00;99609.25;2049223;28;20492;-64
2021/05/11 02:43:46;;;;;;;59.85;22.25;;;;;;;11.31;100.00;99608.50;2049424;28;20046;-64
2021/05/11 02:44:47;;;;;;;29.83;20.03;;;;;;;11.28;100.00;99614.66;2049231;28;20476;-64
2021/05/11 02:45:47;;;;;;;35.97;21.67;;;;;;;11.26;100.00;99615.66;2049642;28;20037;-64
2021/05/11 02:46:48;;;;;;;35.93;22.47;;;;;;;11.27;100.00;99610.34;2049385;28;20023;-64
2021/05/11 02:47:48;;;;;;;47.93;23.23;;;;;;;11.26;100.00;99610.44;2049473;28;20034;-64
2021/05/11 02:48:49;;;;;;;38.40;22.27;;;;;;;11.27;100.00;99607.75;2048832;28;20161;-64
2021/05/11 02:49:50;;;;;;;53.20;23.50;;;;;;;11.26;100.00;99607.81;2048592;28;20031;-64
2021/05/11 02:50:50;;;;;;;;;;;;;;;11.24;100.00;99609.66;2049018;29;20027;-64
2021/05/11 02:51:51;;;;;;;28.27;20.80;;;;;;;11.23;100.00;99600.13;2049189;28;19914;-64
2021/05/11 02:52:51;;;;;;;33.37;21.73;;;;;;;11.21;100.00;99603.66;2049168;28;20070;-64
2021/05/11 02:53:52;;;;;;;65.70;25.77;;;;;;;11.17;100.00;99596.00;2049426;28;20060;-64
2021/05/11 02:54:52;;;;;;;36.43;22.20;;;;;;;11.16;100.00;99595.19;2049296;28;20039;-64
2021/05/11 02:55:52;;;;;;;32.27;22.70;;;;;;;11.18;100.00;99592.50;2049504;28;20028;-64
2021/05/11 02:56:52;;;;;;;31.27;21.77;;;;;;;11.16;100.00;99594.34;2049275;28;20031;-64
2021/05/11 02:57:54;;;;;;;32.23;22.80;;;;;;;11.16;100.00;99592.56;2049506;28;20034;-64
2021/05/11 02:58:54;;;;;;;29.08;20.80;;;;;;;11.16;100.00;99597.78;2048902;28;20316;-64
2021/05/11 02:59:55;;;;;;;30.80;21.93;;;;;;;11.18;100.00;99603.78;2049339;28;20476;-64
2021/05/11 03:00:55;;;;;;;28.97;20.97;;;;;;;11.18;100.00;99608.13;2048959;28;20392;-64
2021/05/11 03:01:55;;;;;;;30.67;22.03;;;;;;;11.20;100.00;99603.72;2049087;28;20030;-64
2021/05/11 03:02:56;;;;;;;32.37;22.70;;;;;;;11.20;100.00;99608.94;2047771;29;20031;-64
2021/05/11 03:03:56;;;;;;;31.05;22.55;;;;;;;11.22;100.00;99609.72;2048704;29;20023;-64
2021/05/11 03:04:57;;;;;;;30.27;22.73;;;;;;;11.21;100.00;99608.88;2049374;28;20130;-64
2021/05/11 03:05:57;;;;;;;31.00;22.87;;;;;;;11.23;100.00;99606.19;2049402;29;20029;-64
2021/05/11 03:06:57;;;;;;;29.50;21.73;;;;;;;11.22;100.00;99612.31;2049187;29;20396;-64
2021/05/11 03:07:58;;;;;;;26.73;21.10;;;;;;;11.24;100.00;99614.84;2049475;29;20027;-64
2021/05/11 03:08:58;;;;;;;27.43;21.40;;;;;;;11.25;100.00;99611.34;2049285;29;20129;-64
2021/05/11 03:09:59;;;;;;;26.87;21.10;;;;;;;11.24;100.00;99610.50;2049239;29;20034;-64
2021/05/11 03:10:59;;;;;;;29.57;22.43;;;;;;;11.24;100.00;99610.50;2048962;28;20033;-64
2021/05/11 03:11:59;;;;;;;30.67;22.60;;;;;;;11.25;100.00;99611.34;2048606;28;20815;-64
2021/05/11 03:12:59;;;;;;;29.50;23.23;;;;;;;11.26;100.00;99607.81;2049116;28;20049;-64
2021/05/11 03:14:00;;;;;;;31.87;23.23;;;;;;;11.25;100.00;99606.13;2049159;28;20037;-64
2021/05/11 03:15:01;;;;;;;29.63;22.90;;;;;;;11.23;100.00;99600.97;2048988;28;20111;-64
2021/05/11 03:16:02;;;;;;;32.15;23.02;;;;;;;11.23;100.00;99603.59;2048554;29;20023;-64
2021/05/11 03:17:02;;;;;;;29.92;22.73;;;;;;;11.21;100.00;99610.63;2048741;29;20035;-64
2021/05/11 03:18:03;;;;;;;28.85;22.58;;;;;;;11.20;100.00;99603.72;2049113;28;20027;-64
2021/05/11 03:19:03;;;;;;;30.13;23.53;;;;;;;11.18;100.00;99606.41;2049237;28;20399;-64
2021/05/11 03:20:06;;;;;;;30.33;22.73;;;;;;;11.21;100.00;99605.41;2049182;28;20027;-64
2021/05/11 03:21:06;;;;;;;30.83;22.63;;;;;;;11.21;100.00;99608.03;2049005;28;20287;-64
2021/05/11 03:22:08;;;;;;;30.07;23.77;;;;;;;11.23;100.00;99613.16;2049107;28;20023;-65
2021/05/11 03:23:08;;;;;;;33.08;23.75;;;;;;;11.21;100.00;99605.41;2048811;28;20027;-65
2021/05/11 03:24:10;;;;;;;37.10;25.57;;;;;;;11.22;100.00;99599.28;2048999;28;20106;-65
2021/05/11 03:25:11;;;;;;;32.58;23.58;;;;;;;11.21;100.00;99593.22;2048885;28;20035;-65
2021/05/11 03:26:11;;;;;;;35.15;24.48;;;;;;;11.22;100.00;99583.63;2049485;28;20486;-65
2021/05/11 03:27:13;;;;;;;30.57;23.43;;;;;;;11.20;100.00;99585.44;2048996;28;20200;-64
2021/05/11 03:28:14;;;;;;;31.77;23.50;;;;;;;11.20;100.00;99586.31;2049045;28;20113;-64
2021/05/11 03:29:14;;;;;;;43.53;27.53;;;;;;;11.18;100.00;99582.91;2049197;28;20475;-64
2021/05/11 03:30:15;;;;;;;34.07;25.73;;;;;;;11.19;100.00;99581.16;2048928;28;20027;-64
2021/05/11 03:31:15;;;;;;;33.55;24.90;;;;;;;11.18;100.00;99585.53;2048957;28;20027;-64
2021/05/11 03:32:15;;;;;;;35.50;26.20;;;;;;;11.21;100.00;99590.63;2048619;28;20066;-64
2021/05/11 03:33:16;;;;;;;37.10;26.13;;;;;;;11.21;100.00;99590.63;2048795;29;20027;-64
2021/05/11 03:34:16;;;;;;;37.27;26.37;;;;;;;11.25;100.00;99587.88;2048586;29;20294;-64
2021/05/11 03:35:16;;;;;;;34.47;24.67;;;;;;;11.27;100.00;99586.03;2048052;29;20023;-64
2021/05/11 03:36:17;;;;;;;32.60;24.27;;;;;;;11.26;100.00;99581.75;2048403;29;20498;-64
2021/05/11 03:37:17;;;;;;;30.53;23.60;;;;;;;11.24;100.00;99578.34;2048675;29;20023;-64
2021/05/11 03:38:17;;;;;;;34.80;24.57;;;;;;;11.23;100.00;99581.84;2048917;28;20023;-64
2021/05/11 03:39:18;;;;;;;30.47;22.97;;;;;;;11.24;100.00;99581.81;2049087;28;20093;-64
2021/05/11 03:40:18;;;;;;;33.23;22.73;;;;;;;11.24;100.00;99583.56;2048678;28;20470;-64
2021/05/11 03:41:25;;;;;;;32.30;22.37;;;;;;;11.17;100.00;99578.63;2049063;28;20440;-64
2021/05/11 03:43:02;;;;;;;28.77;21.42;;;;;;;11.16;100.00;99576.91;2047949;28;20027;-64
2021/05/11 03:43:57;;;;;;;27.27;20.67;;;;;;;11.15;100.00;99577.00;2048315;29;20126;-64
2021/05/11 03:45:01;;;;;;;26.67;21.67;;;;;;;11.13;100.00;99565.78;2048032;29;20106;-64
2021/05/11 03:46:07;;;;;;;26.25;20.35;;;;;;;11.07;100.00;99569.50;2048595;29;20027;-64
2021/05/11 03:47:07;;;;;;;24.02;20.05;;;;;;;11.04;100.00;99567.88;2048830;28;20054;-64
2021/05/11 03:48:08;;;;;;;27.73;21.30;;;;;;;10.98;100.00;99567.28;2049091;28;20590;-64
2021/05/11 03:49:08;;;;;;;28.00;21.40;;;;;;;10.93;100.00;99554.44;2048713;28;20039;-64
2021/05/11 03:50:09;;;;;;;25.10;20.10;;;;;;;10.87;100.00;99550.31;2048837;28;20067;-64
2021/05/11 03:51:10;;;;;;;30.67;22.42;;;;;;;10.82;100.00;99547.06;2048951;28;20058;-64
2021/05/11 03:52:10;;;;;;;27.42;21.65;;;;;;;10.78;100.00;99542.03;2048606;28;20043;-64
2021/05/11 03:53:11;;;;;;;28.90;21.50;;;;;;;10.74;100.00;99533.47;2048701;28;20041;-64
2021/05/11 03:54:11;;;;;;;38.77;25.83;;;;;;;10.71;100.00;99525.81;2048959;29;20023;-64
2021/05/11 03:55:12;;;;;;;59.63;23.77;;;;;;;10.73;100.00;99530.03;2048720;28;20031;-64
2021/05/11 03:56:12;;;;;;;100.13;24.80;;;;;;;10.71;100.00;99525.81;2048813;28;20109;-64
2021/05/11 03:57:12;;;;;;;101.17;23.93;;;;;;;10.67;100.00;99521.63;2048621;29;20384;-64
2021/05/11 03:58:13;;;;;;;155.53;24.90;;;;;;;10.62;100.00;99513.16;2049045;28;20063;-64
2021/05/11 03:59:14;;;;;;;74.25;24.25;;;;;;;10.58;100.00;99508.06;2048924;28;20035;-64
2021/05/11 04:00:16;;;;;;;105.10;25.80;;;;;;;10.53;100.00;99515.22;2048737;28;20051;-64
2021/05/11 04:01:17;;;;;;;44.38;23.23;;;;;;;10.51;100.00;99519.66;2048163;28;20027;-64
2021/05/11 04:02:17;;;;;;;38.58;22.77;;;;;;;10.54;100.00;99532.53;2047356;28;20071;-64
2021/05/11 04:03:18;;;;;;;47.30;23.13;;;;;;;10.57;100.00;99532.44;2046789;29;20031;-64
2021/05/11 04:04:20;;;;;;;43.42;25.88;;;;;;;10.55;100.00;99549.03;2048506;28;20099;-64
2021/05/11 04:05:21;;;;;;;41.80;26.15;;;;;;;10.55;100.00;99554.25;2047503;28;20023;-64
2021/05/11 04:06:21;;;;;;;47.03;25.58;;;;;;;10.58;100.00;99560.19;2048120;28;20033;-64
2021/05/11 04:07:21;;;;;;;71.60;24.57;;;;;;;10.61;100.00;99563.59;2048850;28;20400;-64
2021/05/11 04:09:38;;;;;;;72.25;23.20;;;;;;;10.56;100.00;99556.78;2047631;28;20086;-64
2021/05/11 04:10:43;;;;;;;66.75;25.08;;;;;;;10.55;100.00;99549.88;2048649;28;20055;-64
2021/05/11 04:14:20;;;;;;;125.63;26.77;;;;;;;10.58;100.00;99560.19;2048429;28;20035;-64
2021/05/11 04:16:42;;;;;;;255.73;33.35;;;;;;;10.60;100.00;99554.91;2048551;29;20694;-64
2021/05/11 04:17:44;;;;;;;128.60;27.38;;;;;;;10.65;100.00;99544.28;2048710;28;20400;-64
2021/05/11 04:18:44;;;;;;;152.82;27.30;;;;;;;10.71;100.00;99549.28;2048841;28;20027;-64
2021/05/11 04:19:45;;;;;;;230.13;33.57;;;;;;;10.76;100.00;99551.69;2048736;28;20058;-64
2021/05/11 04:20:47;;;;;;;131.83;26.87;;;;;;;10.78;100.00;99542.03;2048677;28;20023;-64
2021/05/11 04:21:47;;;;;;;150.93;26.27;;;;;;;10.85;100.00;99541.72;2048526;28;20037;-64
2021/05/11 04:22:47;;;;;;;252.40;27.10;;;;;;;10.80;100.00;99540.19;2048035;28;20030;-64
2021/05/11 04:23:50;;;;;;;200.00;27.53;;;;;;;10.87;100.00;99534.69;2047823;29;20031;-64
2021/05/11 04:24:51;;;;;;;91.03;24.00;;;;;;;11.01;100.00;99538.47;2047953;29;20038;-64
2021/05/11 04:25:51;;;;;;;31.53;21.10;;;;;;;11.10;100.00;99545.03;2039892;29;20050;-64
2021/05/11 04:26:52;;;;;;;27.23;21.30;;;;;;;11.16;100.00;99548.22;2047823;29;20060;-64
2021/05/11 04:27:52;;;;;;;21.43;18.37;;;;;;;11.16;100.00;99544.78;2048631;29;20058;-64
2021/05/11 04:28:52;;;;;;;25.87;19.60;;;;;;;11.24;100.00;99547.03;2048461;28;20805;-64
2021/05/11 04:29:58;;;;;;;18.93;16.93;;;;;;;11.29;100.00;99552.91;2048689;28;20103;-64
2021/05/11 04:30:58;;;;;;;22.73;18.65;;;;;;;11.30;100.00;99542.41;2047441;28;20027;-64
2021/05/11 04:31:58;;;;;;;27.37;18.27;;;;;;;11.34;100.00;99543.97;2040709;29;20032;-64
2021/05/11 04:32:58;;;;;;;22.47;17.83;;;;;;;11.31;100.00;99548.50;2041859;28;20027;-64
2021/05/11 04:33:59;;;;;;;33.90;19.50;;;;;;;11.32;100.00;99552.75;2045483;28;20066;-64
2021/05/11 04:34:59;;;;;;;20.43;16.97;;;;;;;11.28;100.00;99559.03;2044959;28;20707;-64
2021/05/11 04:36:00;;;;;;;18.53;16.53;;;;;;;11.24;100.00;99562.69;2046371;28;20551;-64
2021/05/11 04:37:00;;;;;;;31.10;16.13;;;;;;;11.22;100.00;99567.97;2040418;28;20027;-64
2021/05/11 04:38:01;;;;;;;21.63;15.10;;;;;;;11.20;100.00;99567.19;2045169;29;20105;-64
2021/05/11 04:39:02;;;;;;;16.67;14.97;;;;;;;11.17;100.00;99573.41;2044059;28;20054;-64
2021/05/11 04:40:03;;;;;;;16.85;14.73;;;;;;;11.17;100.00;99580.34;2046591;28;20023;-64
2021/05/11 04:41:04;;;;;;;;;;;;;;;11.14;100.00;99570.91;2046597;28;20026;-64
2021/05/11 04:42:05;;;;;;;19.73;15.40;;;;;;;11.17;100.00;99572.53;2045990;29;20314;-64
2021/05/11 04:43:05;;;;;;;16.30;14.53;;;;;;;11.19;100.00;99575.94;2045352;29;20023;-64
2021/05/11 04:44:06;;;;;;;16.80;14.73;;;;;;;11.23;100.00;99574.91;2037284;29;20043;-64
2021/05/11 04:45:06;;;;;;;18.03;15.40;;;;;;;11.28;100.00;99575.53;2045642;29;20492;-64
2021/05/11 04:46:32;;;;;;;17.98;15.30;;;;;;;11.35;100.00;99571.75;2046608;28;20027;-65
2021/05/11 04:47:50;;;;;;;17.15;15.27;;;;;;;11.41;100.00;99577.63;2046008;28;20039;-64
2021/05/11 04:48:52;;;;;;;17.48;15.32;;;;;;;11.48;100.00;99566.84;2046145;28;20027;-64
2021/05/11 04:49:52;;;;;;;16.85;14.57;;;;;;;11.55;100.00;99563.97;2046320;28;20752;-64
2021/05/11 04:50:53;;;;;;;16.70;14.60;;;;;;;11.62;100.00;99557.53;2045842;28;20031;-64
2021/05/11 04:51:53;;;;;;;16.13;13.63;;;;;;;11.56;100.00;99547.38;2045714;28;20030;-64
2021/05/11 04:52:56;;;;;;;15.50;13.77;;;;;;;11.68;100.00;99539.00;2045915;28;20744;-64
2021/05/11 04:53:56;;;;;;;15.68;13.05;;;;;;;11.76;100.00;99542.13;2045961;28;20078;-64
2021/05/11 04:54:57;;;;;;;13.97;12.53;;;;;;;11.85;100.00;99538.25;2046451;28;20027;-64
2021/05/11 04:55:57;;;;;;;12.90;11.60;;;;;;;11.94;100.00;99536.97;2045685;28;20035;-65
2021/05/11 04:56:57;;;;;;;12.63;11.40;;;;;;;12.02;100.00;99544.47;2046066;28;20023;-64
2021/05/11 04:57:57;;;;;;;11.60;10.50;;;;;;;12.17;100.00;99548.13;2046199;29;20435;-64
2021/05/11 04:58:58;;;;;;;12.10;11.00;;;;;;;12.33;100.00;99546.47;2046171;28;20113;-64
2021/05/11 05:00:01;;;;;;;11.90;10.70;;;;;;;12.46;100.00;99554.56;2045847;28;20057;-64
2021/05/11 05:01:02;;;;;;;11.60;10.50;;;;;;;12.54;100.00;99555.03;2046016;28;20099;-64
2021/05/11 05:02:04;;;;;;;11.77;10.68;;;;;;;12.57;100.00;99564.50;2045602;28;20034;-64
2021/05/11 05:03:07;;;;;;;;;;;;;;;12.51;100.00;99570.00;2046617;28;20027;-64
2021/05/11 05:04:09;;;;;;;11.73;10.57;;;;;;;12.48;100.00;99571.03;2045973;28;19931;-64
2021/05/11 05:05:11;;;;;;;11.65;10.50;;;;;;;12.42;100.00;99573.94;2046007;28;20030;-65
2021/05/11 05:06:11;;;;;;;11.80;10.40;;;;;;;12.30;100.00;99572.72;2045630;28;20110;-64
2021/05/11 05:07:11;;;;;;;11.23;10.13;;;;;;;12.23;100.00;99573.97;2045830;28;20046;-64
2021/05/11 05:08:11;;;;;;;11.40;10.20;;;;;;;12.17;100.00;99571.63;2046381;28;20031;-64
2021/05/11 05:09:12;;;;;;;10.77;9.77;;;;;;;12.12;100.00;99572.69;2046279;28;20526;-64
2021/05/11 05:10:13;;;;;;;11.40;10.20;;;;;;;12.08;100.00;99570.28;2044866;29;20506;-65
2021/05/11 05:11:14;;;;;;;11.65;10.48;;;;;;;12.02;100.00;99560.16;2046706;28;20309;-64
2021/05/11 05:12:14;;;;;;;11.10;10.02;;;;;;;11.97;100.00;99560.31;2046427;28;20035;-64
2021/05/11 05:13:22;;;;;;;11.07;9.97;;;;;;;11.99;100.00;99559.38;2047159;28;20070;-64
2021/05/11 05:14:22;;;;;;;12.55;11.05;;;;;;;11.98;100.00;99556.84;2046874;28;20200;-64
2021/05/11 05:15:22;;;;;;;11.50;10.30;;;;;;;11.98;100.00;99557.66;2047201;28;20880;-64
2021/05/11 05:16:23;;;;;;;11.73;10.63;;;;;;;12.05;100.00;99550.41;2045693;29;20031;-64
2021/05/11 05:17:23;;;;;;;11.87;10.67;;;;;;;12.10;100.00;99553.63;2046338;28;20023;-64
2021/05/11 05:18:27;;;;;;;11.85;10.75;;;;;;;12.09;100.00;99556.31;2046555;28;20034;-64
2021/05/11 05:19:27;;;;;;;11.32;10.30;;;;;;;12.15;100.00;99556.03;2046485;28;20031;-64
2021/05/11 05:20:27;;;;;;;12.40;11.00;;;;;;;12.15;100.00;99545.56;2045920;28;20101;-64
2021/05/11 05:21:27;;;;;;;11.50;10.40;;;;;;;12.16;100.00;99554.28;2046500;28;20030;-64
2021/05/11 05:22:28;;;;;;;11.70;10.60;;;;;;;12.22;100.00;99543.53;2046141;29;20129;-64
2021/05/11 05:23:32;;;;;;;11.10;10.03;;;;;;;12.26;100.00;99537.25;2046657;28;20963;-64
2021/05/11 05:24:53;;;;;;;11.35;10.25;;;;;;;12.32;100.00;99541.31;2046128;28;20038;-64
2021/05/11 05:26:05;;;;;;;11.10;10.00;;;;;;;12.26;100.00;99535.47;2041939;29;20126;-64
2021/05/11 05:27:15;;;;;;;12.18;10.60;;;;;;;12.33;100.00;99538.63;2046532;28;20027;-64
2021/05/11 05:28:15;;;;;;;11.30;10.20;;;;;;;12.38;100.00;99528.81;2046350;29;20440;-63
2021/05/11 05:29:16;;;;;;;10.70;9.70;;;;;;;12.43;100.00;99529.44;2046136;28;20053;-64
2021/05/11 05:30:17;;;;;;;10.50;9.50;;;;;;;12.45;100.00;99526.72;2046434;29;20560;-64
2021/05/11 05:31:17;;;;;;;10.82;9.73;;;;;;;12.46;100.00;99528.44;2046148;28;20031;-64
2021/05/11 05:32:18;;;;;;;10.50;9.50;;;;;;;12.47;99.70;99529.28;2045726;29;20035;-64
2021/05/11 05:33:28;;;;;;;9.98;9.07;;;;;;;12.49;99.77;99532.69;2045833;28;20126;-64
2021/05/11 05:34:28;;;;;;;10.20;8.95;;;;;;;12.50;99.19;99536.97;2046344;28;20246;-64
2021/05/11 05:35:32;;;;;;;10.73;9.73;;;;;;;12.50;99.49;99536.97;2046545;28;20439;-64
2021/05/11 05:36:33;;;;;;;9.52;8.63;;;;;;;12.53;99.63;99537.69;2042657;29;20015;-64
2021/05/11 05:37:33;;;;;;;10.13;9.13;;;;;;;12.51;100.00;99551.72;2046285;28;20539;-64
2021/05/11 05:38:36;;;;;;;9.30;8.50;;;;;;;12.57;99.74;99551.44;2046371;29;20031;-64